createdAt,value
2016-08-11T00:00:00.995Z,9.7
2016-08-11T00:00:11.001Z,9.7
2016-08-11T00:00:21.006Z,9.7
2016-08-11T00:00:31.016Z,9.7
2016-08-11T00:00:41.020Z,9.7
2016-08-11T00:00:51.031Z,9.7
2016-08-11T00:01:01.031Z,9.7
2016-08-11T00:01:11.790Z,9.7
2016-08-11T00:01:21.043Z,9.7
2016-08-11T00:01:31.048Z,9.7
2016-08-11T00:01:41.056Z,9.7
2016-08-11T00:01:51.061Z,9.7
2016-08-11T00:02:01.074Z,9.7
2016-08-11T00:02:11.073Z,9.7
2016-08-11T00:02:21.078Z,9.7
2016-08-11T00:02:31.091Z,9.7
2016-08-11T00:02:41.091Z,9.7
2016-08-11T00:02:51.098Z,9.7
2016-08-11T00:03:01.856Z,9.7
2016-08-11T00:03:11.108Z,9.7
2016-08-11T00:03:21.869Z,9.7
2016-08-11T00:03:31.123Z,9.7
2016-08-11T00:03:41.130Z,9.6
2016-08-11T00:03:51.136Z,9.7
2016-08-11T00:04:01.137Z,9.6
2016-08-11T00:04:11.147Z,9.6
2016-08-11T00:04:21.153Z,9.7
2016-08-11T00:04:31.158Z,9.7
2016-08-11T00:04:41.163Z,9.6
2016-08-11T00:04:51.171Z,9.5
2016-08-11T00:05:01.179Z,9.7
2016-08-11T00:05:11.183Z,9.6
2016-08-11T00:05:21.189Z,9.5
2016-08-11T00:05:31.194Z,9.7
2016-08-11T00:05:41.203Z,9.6
2016-08-11T00:05:51.215Z,9.5
2016-08-11T00:06:01.215Z,9.5
2016-08-11T00:06:11.973Z,9.6
2016-08-11T00:06:21.224Z,9.6
2016-08-11T00:06:31.984Z,9.6
2016-08-11T00:06:41.238Z,9.6
2016-08-11T00:06:51.251Z,9.6
2016-08-11T00:07:01.250Z,9.6
2016-08-11T00:07:11.253Z,9.5
2016-08-11T00:07:21.261Z,9.5
2016-08-11T00:07:31.266Z,9.5
2016-08-11T00:07:41.276Z,9.6
2016-08-11T00:07:51.279Z,9.6
2016-08-11T00:08:01.286Z,9.7
2016-08-11T00:08:12.044Z,9.6
2016-08-11T00:08:22.050Z,9.5
2016-08-11T00:08:31.304Z,9.5
2016-08-11T00:08:41.308Z,9.5
2016-08-11T00:08:51.317Z,9.6
2016-08-11T00:09:01.321Z,9.6
2016-08-11T00:09:11.328Z,9.6
2016-08-11T00:09:21.334Z,9.6
2016-08-11T00:09:31.340Z,9.6
2016-08-11T00:09:41.347Z,9.6
2016-08-11T00:09:52.105Z,9.6
2016-08-11T00:10:02.128Z,9.6
2016-08-11T00:10:11.363Z,9.5
2016-08-11T00:10:21.369Z,9.6
2016-08-11T00:10:31.377Z,9.5
2016-08-11T00:10:41.391Z,9.5
2016-08-11T00:10:51.389Z,9.5
2016-08-11T00:11:01.394Z,9.6
2016-08-11T00:11:11.399Z,9.5
2016-08-11T00:11:21.407Z,9.5
2016-08-11T00:11:31.415Z,9.6
2016-08-11T00:11:41.420Z,9.5
2016-08-11T00:11:51.427Z,9.5
2016-08-11T00:12:01.433Z,9.5
2016-08-11T00:12:11.438Z,9.6
2016-08-11T00:12:22.196Z,9.5
2016-08-11T00:12:31.450Z,9.6
2016-08-11T00:12:41.456Z,9.5
2016-08-11T00:12:51.462Z,9.6
2016-08-11T00:13:01.468Z,9.6
2016-08-11T00:13:11.475Z,9.5
2016-08-11T00:13:31.488Z,9.5
2016-08-11T00:13:41.497Z,9.6
2016-08-11T00:13:51.496Z,9.5
2016-08-11T00:14:01.507Z,9.5
2016-08-11T00:14:11.509Z,9.4
2016-08-11T00:14:21.517Z,9.4
2016-08-11T00:14:31.522Z,9.5
2016-08-11T00:14:41.526Z,9.4
2016-08-11T00:14:52.287Z,9.4
2016-08-11T00:15:01.540Z,9.5
2016-08-11T00:15:12.300Z,9.4
2016-08-11T00:15:21.552Z,9.4
2016-08-11T00:15:31.557Z,9.4
2016-08-11T00:15:41.563Z,9.4
2016-08-11T00:15:52.323Z,9.4
2016-08-11T00:16:01.575Z,9.5
2016-08-11T00:16:11.581Z,9.4
2016-08-11T00:16:22.342Z,9.5
2016-08-11T00:16:31.596Z,9.4
2016-08-11T00:16:42.362Z,9.4
2016-08-11T00:16:51.606Z,9.4
2016-08-11T00:17:01.614Z,9.5
2016-08-11T00:17:11.620Z,9.4
2016-08-11T00:17:22.379Z,9.5
2016-08-11T00:17:31.631Z,9.4
2016-08-11T00:17:41.637Z,9.4
2016-08-11T00:17:51.643Z,9.4
2016-08-11T00:18:01.655Z,9.4
2016-08-11T00:18:11.655Z,9.4
2016-08-11T00:18:21.662Z,9.5
2016-08-11T00:18:31.668Z,9.4
2016-08-11T00:18:41.679Z,9.4
2016-08-11T00:18:51.682Z,9.4
2016-08-11T00:19:01.685Z,9.4
2016-08-11T00:19:11.692Z,9.4
2016-08-11T00:19:21.704Z,9.5
2016-08-11T00:19:31.703Z,9.5
2016-08-11T00:19:51.718Z,9.4
2016-08-11T00:20:01.723Z,9.4
2016-08-11T00:20:11.729Z,9.5
2016-08-11T00:20:22.491Z,9.4
2016-08-11T00:20:31.740Z,9.4
2016-08-11T00:20:41.746Z,9.4
2016-08-11T00:20:51.753Z,9.4
2016-08-11T00:21:01.758Z,9.4
2016-08-11T00:21:11.764Z,9.4
2016-08-11T00:21:21.774Z,9.5
2016-08-11T00:21:31.776Z,9.4
2016-08-11T00:21:41.782Z,9.4
2016-08-11T00:21:51.788Z,9.5
2016-08-11T00:22:01.797Z,9.4
2016-08-11T00:22:12.554Z,9.5
2016-08-11T00:22:21.808Z,9.4
2016-08-11T00:22:31.813Z,9.4
2016-08-11T00:22:41.819Z,9.4
2016-08-11T00:22:52.577Z,9.4
2016-08-11T00:23:01.832Z,9.3
2016-08-11T00:23:12.589Z,9.4
2016-08-11T00:23:21.843Z,9.4
2016-08-11T00:23:31.850Z,9.4
2016-08-11T00:23:41.859Z,9.4
2016-08-11T00:23:51.862Z,9.3
2016-08-11T00:24:01.869Z,9.3
2016-08-11T00:24:11.872Z,9.3
2016-08-11T00:24:21.878Z,9.4
2016-08-11T00:24:31.885Z,9.4
2016-08-11T00:24:41.891Z,9.3
2016-08-11T00:24:51.898Z,9.3
2016-08-11T00:25:01.905Z,9.3
2016-08-11T00:25:11.923Z,9.3
2016-08-11T00:25:21.914Z,9.4
2016-08-11T00:25:31.924Z,9.3
2016-08-11T00:25:42.680Z,9.3
2016-08-11T00:25:51.934Z,9.3
2016-08-11T00:26:01.953Z,9.3
2016-08-11T00:26:11.944Z,9.3
2016-08-11T00:26:21.952Z,9.2
2016-08-11T00:26:31.958Z,9.2
2016-08-11T00:26:41.962Z,9.3
2016-08-11T00:26:51.971Z,9.4
2016-08-11T00:27:01.974Z,9.2
2016-08-11T00:27:12.733Z,9.3
2016-08-11T00:27:21.988Z,9.2
2016-08-11T00:27:32.005Z,9.3
2016-08-11T00:27:41.998Z,9.2
2016-08-11T00:27:52.759Z,9.2
2016-08-11T00:28:02.011Z,9.2
2016-08-11T00:28:22.093Z,9.3
2016-08-11T00:28:32.030Z,9.2
2016-08-11T00:28:42.036Z,9.3
2016-08-11T00:28:52.043Z,9.2
2016-08-11T00:29:02.047Z,9.2
2016-08-11T00:29:12.055Z,9.3
2016-08-11T00:29:22.060Z,9.2
2016-08-11T00:29:32.068Z,9.3
2016-08-11T00:29:42.075Z,9.3
2016-08-11T00:29:52.083Z,9.3
2016-08-11T00:30:02.086Z,9.3
2016-08-11T00:30:12.847Z,9.3
2016-08-11T00:30:22.095Z,9.3
2016-08-11T00:30:32.859Z,9.3
2016-08-11T00:30:42.115Z,9.2
2016-08-11T00:30:52.113Z,9.3
2016-08-11T00:31:03.319Z,9.3
2016-08-11T00:31:12.129Z,9.2
2016-08-11T00:31:22.132Z,9.2
2016-08-11T00:31:32.138Z,9.2
2016-08-11T00:31:42.899Z,9.2
2016-08-11T00:31:52.152Z,9.3
2016-08-11T00:32:02.157Z,9.2
2016-08-11T00:32:12.170Z,9.2
2016-08-11T00:32:22.170Z,9.2
2016-08-11T00:32:32.176Z,9.3
2016-08-11T00:32:42.180Z,9.3
2016-08-11T00:32:52.187Z,9.2
2016-08-11T00:33:02.192Z,9.2
2016-08-11T00:33:12.953Z,9.2
2016-08-11T00:33:22.204Z,9.2
2016-08-11T00:33:32.224Z,9.2
2016-08-11T00:33:42.969Z,9.2
2016-08-11T00:33:52.223Z,9.2
2016-08-11T00:34:02.242Z,9.2
2016-08-11T00:34:12.989Z,9.2
2016-08-11T00:34:22.244Z,9.2
2016-08-11T00:34:32.248Z,9.2
2016-08-11T00:34:42.252Z,9.2
2016-08-11T00:34:52.261Z,9.1
2016-08-11T00:35:02.265Z,9.2
2016-08-11T00:35:12.271Z,9.2
2016-08-11T00:35:22.278Z,9.2
2016-08-11T00:35:33.036Z,9.1
2016-08-11T00:35:42.290Z,9.2
2016-08-11T00:35:52.296Z,9.2
2016-08-11T00:36:02.303Z,9.2
2016-08-11T00:36:12.308Z,9.1
2016-08-11T00:36:22.313Z,9.2
2016-08-11T00:36:32.320Z,9.3
2016-08-11T00:36:42.332Z,9.1
2016-08-11T00:36:52.344Z,9.2
2016-08-11T00:37:02.338Z,9.1
2016-08-11T00:37:12.348Z,9.2
2016-08-11T00:37:22.350Z,9.1
2016-08-11T00:37:32.356Z,9.1
2016-08-11T00:37:42.361Z,9.1
2016-08-11T00:37:53.122Z,9.1
2016-08-11T00:38:02.374Z,9.1
2016-08-11T00:38:12.378Z,9.1
2016-08-11T00:38:22.389Z,9.2
2016-08-11T00:38:33.144Z,9.1
2016-08-11T00:38:43.150Z,9.1
2016-08-11T00:38:52.405Z,9.2
2016-08-11T00:39:02.412Z,9.1
2016-08-11T00:39:12.415Z,9.1
2016-08-11T00:39:22.421Z,9.1
2016-08-11T00:39:32.428Z,9.1
2016-08-11T00:39:42.434Z,9.1
2016-08-11T00:39:52.442Z,9.1
2016-08-11T00:40:02.457Z,9.1
2016-08-11T00:40:12.451Z,9.2
2016-08-11T00:40:22.464Z,9.1
2016-08-11T00:40:32.464Z,9.2
2016-08-11T00:40:42.471Z,9.1
2016-08-11T00:40:52.477Z,9.1
2016-08-11T00:41:02.482Z,9.1
2016-08-11T00:41:12.493Z,9.1
2016-08-11T00:41:22.493Z,9.2
2016-08-11T00:41:32.501Z,9.1
2016-08-11T00:41:42.506Z,9.1
2016-08-11T00:41:52.510Z,9.2
2016-08-11T00:42:02.518Z,9.1
2016-08-11T00:42:12.523Z,9.1
2016-08-11T00:42:22.537Z,9.2
2016-08-11T00:42:32.537Z,9.1
2016-08-11T00:42:42.539Z,9
2016-08-11T00:42:52.549Z,9
2016-08-11T00:43:02.561Z,9.2
2016-08-11T00:43:12.560Z,9.2
2016-08-11T00:43:22.567Z,9.1
2016-08-11T00:43:42.576Z,9.2
2016-08-11T00:43:52.584Z,9.1
2016-08-11T00:44:02.597Z,9.1
2016-08-11T00:44:12.597Z,9.1
2016-08-11T00:44:22.601Z,9.1
2016-08-11T00:44:32.605Z,9.1
2016-08-11T00:44:42.612Z,9.1
2016-08-11T00:44:52.619Z,9.1
2016-08-11T00:45:02.634Z,9.1
2016-08-11T00:45:12.630Z,9.2
2016-08-11T00:45:22.636Z,9.1
2016-08-11T00:45:32.655Z,9.1
2016-08-11T00:45:42.650Z,9.1
2016-08-11T00:45:52.657Z,9.1
2016-08-11T00:46:02.664Z,9.1
2016-08-11T00:46:12.667Z,9.1
2016-08-11T00:46:23.428Z,9.1
2016-08-11T00:46:32.681Z,9.1
2016-08-11T00:46:42.687Z,9.1
2016-08-11T00:46:52.702Z,9.1
2016-08-11T00:47:03.456Z,9.1
2016-08-11T00:47:13.456Z,9.1
2016-08-11T00:47:22.712Z,9.1
2016-08-11T00:47:32.715Z,9.2
2016-08-11T00:47:43.475Z,9
2016-08-11T00:47:52.732Z,9
2016-08-11T00:48:02.735Z,9.1
2016-08-11T00:48:12.741Z,9.1
2016-08-11T00:48:22.747Z,9.1
2016-08-11T00:48:32.751Z,9.1
2016-08-11T00:48:42.768Z,9.1
2016-08-11T00:48:52.764Z,9.1
2016-08-11T00:49:02.771Z,9.1
2016-08-11T00:49:12.777Z,9.1
2016-08-11T00:49:22.781Z,9.1
2016-08-11T00:49:32.790Z,9.1
2016-08-11T00:49:42.801Z,9.1
2016-08-11T00:49:52.799Z,9.1
2016-08-11T00:50:02.807Z,9
2016-08-11T00:50:12.810Z,9.1
2016-08-11T00:50:22.818Z,9
2016-08-11T00:50:32.834Z,9.1
2016-08-11T00:50:42.830Z,9
2016-08-11T00:50:52.836Z,9
2016-08-11T00:51:02.840Z,9
2016-08-11T00:51:12.846Z,9.1
2016-08-11T00:51:22.857Z,9.1
2016-08-11T00:51:32.860Z,9
2016-08-11T00:51:42.866Z,9.1
2016-08-11T00:51:52.870Z,9.1
2016-08-11T00:52:02.878Z,9
2016-08-11T00:52:13.642Z,9
2016-08-11T00:52:23.644Z,9.1
2016-08-11T00:52:33.649Z,9.1
2016-08-11T00:52:42.903Z,9
2016-08-11T00:52:53.660Z,9.1
2016-08-11T00:53:03.671Z,9.1
2016-08-11T00:53:12.921Z,9.1
2016-08-11T00:53:22.926Z,9
2016-08-11T00:53:32.932Z,9.1
2016-08-11T00:53:42.938Z,9.1
2016-08-11T00:53:52.945Z,9.1
2016-08-11T00:54:02.952Z,9
2016-08-11T00:54:12.954Z,9.1
2016-08-11T00:54:22.962Z,9
2016-08-11T00:54:32.976Z,9
2016-08-11T00:54:42.976Z,9
2016-08-11T00:54:52.982Z,9
2016-08-11T00:55:02.986Z,9.1
2016-08-11T00:55:12.993Z,9
2016-08-11T00:55:23.004Z,9
2016-08-11T00:55:33.004Z,9
2016-08-11T00:55:43.010Z,9
2016-08-11T00:55:53.015Z,9
2016-08-11T00:56:03.023Z,9
2016-08-11T00:56:13.781Z,9.1
2016-08-11T00:56:23.786Z,9
2016-08-11T00:56:33.792Z,9
2016-08-11T00:56:43.046Z,9
2016-08-11T00:56:53.055Z,9
2016-08-11T00:57:03.060Z,9
2016-08-11T00:57:13.065Z,9
2016-08-11T00:57:23.069Z,9
2016-08-11T00:57:33.830Z,9
2016-08-11T00:57:43.081Z,9
2016-08-11T00:57:53.093Z,9.1
2016-08-11T00:58:03.096Z,9
2016-08-11T00:58:13.098Z,9.1
2016-08-11T00:58:33.113Z,9.1
2016-08-11T00:58:43.117Z,9
2016-08-11T00:58:53.125Z,9
2016-08-11T00:59:03.138Z,9
2016-08-11T00:59:13.888Z,9.1
2016-08-11T00:59:23.143Z,9.1
2016-08-11T00:59:33.149Z,9.1
2016-08-11T00:59:43.157Z,8.9
2016-08-11T00:59:53.913Z,9
2016-08-11T01:00:03.167Z,9
2016-08-11T01:00:13.178Z,9
2016-08-11T01:00:23.178Z,9
2016-08-11T01:00:33.186Z,9
2016-08-11T01:00:43.191Z,9.1
2016-08-11T01:00:53.195Z,9
2016-08-11T01:01:03.957Z,9
2016-08-11T01:01:13.961Z,9
2016-08-11T01:01:23.967Z,8.9
2016-08-11T01:01:33.220Z,8.9
2016-08-11T01:01:43.224Z,9
2016-08-11T01:01:53.236Z,8.9
2016-08-11T01:02:03.237Z,8.9
2016-08-11T01:02:13.255Z,9
2016-08-11T01:02:23.249Z,9
2016-08-11T01:02:33.256Z,8.9
2016-08-11T01:02:43.259Z,9
2016-08-11T01:02:53.272Z,8.9
2016-08-11T01:03:03.274Z,9
2016-08-11T01:03:13.279Z,8.9
2016-08-11T01:03:23.285Z,9
2016-08-11T01:03:34.046Z,9
2016-08-11T01:03:43.298Z,9
2016-08-11T01:03:53.304Z,8.9
2016-08-11T01:04:03.310Z,9
2016-08-11T01:04:13.317Z,8.8
2016-08-11T01:04:23.321Z,8.9
2016-08-11T01:04:33.327Z,8.9
2016-08-11T01:04:43.334Z,8.8
2016-08-11T01:04:53.337Z,8.9
2016-08-11T01:05:04.098Z,8.9
2016-08-11T01:05:13.352Z,8.9
2016-08-11T01:05:23.358Z,8.9
2016-08-11T01:05:33.363Z,8.8
2016-08-11T01:05:43.367Z,8.8
2016-08-11T01:05:53.376Z,8.9
2016-08-11T01:06:03.383Z,8.9
2016-08-11T01:06:14.141Z,8.8
2016-08-11T01:06:23.398Z,8.9
2016-08-11T01:06:33.398Z,9
2016-08-11T01:06:43.405Z,8.9
2016-08-11T01:06:53.411Z,9
2016-08-11T01:07:04.169Z,8.9
2016-08-11T01:07:13.422Z,8.9
2016-08-11T01:07:23.431Z,8.9
2016-08-11T01:07:33.434Z,9
2016-08-11T01:07:43.442Z,8.9
2016-08-11T01:07:53.449Z,9
2016-08-11T01:08:03.452Z,8.9
2016-08-11T01:08:14.212Z,8.9
2016-08-11T01:08:23.463Z,8.9
2016-08-11T01:08:33.479Z,8.9
2016-08-11T01:08:43.480Z,8.9
2016-08-11T01:08:53.484Z,8.8
2016-08-11T01:09:03.492Z,8.9
2016-08-11T01:09:13.499Z,8.8
2016-08-11T01:09:24.256Z,8.9
2016-08-11T01:09:34.262Z,9
2016-08-11T01:09:44.264Z,8.9
2016-08-11T01:09:54.273Z,8.9
2016-08-11T01:10:03.525Z,8.9
2016-08-11T01:10:13.530Z,8.9
2016-08-11T01:10:23.548Z,8.9
2016-08-11T01:10:33.541Z,8.9
2016-08-11T01:10:43.546Z,8.8
2016-08-11T01:10:53.555Z,8.9
2016-08-11T01:11:03.560Z,8.9
2016-08-11T01:11:13.565Z,8.9
2016-08-11T01:11:23.577Z,8.9
2016-08-11T01:11:33.576Z,8.8
2016-08-11T01:11:43.585Z,8.9
2016-08-11T01:11:54.347Z,8.8
2016-08-11T01:12:03.595Z,8.9
2016-08-11T01:12:13.602Z,8.8
2016-08-11T01:12:23.606Z,8.9
2016-08-11T01:12:33.614Z,8.9
2016-08-11T01:12:43.620Z,8.8
2016-08-11T01:12:53.625Z,8.8
2016-08-11T01:13:03.632Z,8.8
2016-08-11T01:13:14.392Z,8.8
2016-08-11T01:13:33.651Z,8.8
2016-08-11T01:13:43.658Z,8.8
2016-08-11T01:13:53.660Z,8.7
2016-08-11T01:14:04.421Z,8.8
2016-08-11T01:14:13.672Z,8.8
2016-08-11T01:14:23.679Z,8.8
2016-08-11T01:14:33.686Z,8.8
2016-08-11T01:14:43.689Z,8.8
2016-08-11T01:14:54.454Z,8.8
2016-08-11T01:15:03.709Z,8.8
2016-08-11T01:15:13.710Z,8.7
2016-08-11T01:15:24.476Z,8.8
2016-08-11T01:15:33.720Z,8.7
2016-08-11T01:15:43.727Z,8.8
2016-08-11T01:15:53.740Z,8.8
2016-08-11T01:16:03.739Z,8.8
2016-08-11T01:16:13.747Z,8.8
2016-08-11T01:16:23.752Z,8.8
2016-08-11T01:16:34.510Z,8.8
2016-08-11T01:16:43.767Z,8.8
2016-08-11T01:16:53.769Z,8.8
2016-08-11T01:17:03.774Z,8.7
2016-08-11T01:17:13.780Z,8.7
2016-08-11T01:17:24.540Z,8.8
2016-08-11T01:17:33.794Z,8.8
2016-08-11T01:17:44.553Z,8.7
2016-08-11T01:17:53.803Z,8.7
2016-08-11T01:18:04.565Z,8.7
2016-08-11T01:18:13.816Z,8.7
2016-08-11T01:18:23.826Z,8.7
2016-08-11T01:18:33.829Z,8.7
2016-08-11T01:18:44.588Z,8.7
2016-08-11T01:18:53.840Z,8.7
2016-08-11T01:19:03.848Z,8.7
2016-08-11T01:19:14.606Z,8.7
2016-08-11T01:19:23.859Z,8.7
2016-08-11T01:19:34.617Z,8.6
2016-08-11T01:19:43.872Z,8.8
2016-08-11T01:19:54.631Z,8.7
2016-08-11T01:20:03.884Z,8.7
2016-08-11T01:20:13.890Z,8.7
2016-08-11T01:20:23.894Z,8.7
2016-08-11T01:20:33.901Z,8.8
2016-08-11T01:20:44.659Z,8.8
2016-08-11T01:20:53.911Z,8.7
2016-08-11T01:21:03.920Z,8.7
2016-08-11T01:21:13.924Z,8.8
2016-08-11T01:21:23.932Z,8.7
2016-08-11T01:21:33.944Z,8.7
2016-08-11T01:21:44.695Z,8.7
2016-08-11T01:21:54.703Z,8.8
2016-08-11T01:22:03.952Z,8.8
2016-08-11T01:22:13.970Z,8.7
2016-08-11T01:22:24.721Z,8.6
2016-08-11T01:22:33.972Z,8.8
2016-08-11T01:22:44.730Z,8.6
2016-08-11T01:22:53.981Z,8.7
2016-08-11T01:23:03.989Z,8.7
2016-08-11T01:23:13.996Z,8.8
2016-08-11T01:23:24.003Z,8.7
2016-08-11T01:23:34.006Z,8.6
2016-08-11T01:23:44.766Z,8.8
2016-08-11T01:23:54.018Z,8.8
2016-08-11T01:24:04.024Z,8.8
2016-08-11T01:24:14.785Z,8.8
2016-08-11T01:24:24.035Z,8.7
2016-08-11T01:24:34.042Z,8.7
2016-08-11T01:24:44.048Z,8.7
2016-08-11T01:24:54.056Z,8.8
2016-08-11T01:25:04.062Z,8.8
2016-08-11T01:25:14.070Z,8.7
2016-08-11T01:25:24.073Z,8.7
2016-08-11T01:25:34.084Z,8.7
2016-08-11T01:25:44.084Z,8.7
2016-08-11T01:25:54.844Z,8.8
2016-08-11T01:26:04.099Z,8.7
2016-08-11T01:26:14.106Z,8.7
2016-08-11T01:26:24.113Z,8.7
2016-08-11T01:26:34.115Z,8.7
2016-08-11T01:26:44.122Z,8.7
2016-08-11T01:26:54.126Z,8.6
2016-08-11T01:27:04.132Z,8.7
2016-08-11T01:27:14.137Z,8.6
2016-08-11T01:27:24.146Z,8.7
2016-08-11T01:27:34.903Z,8.7
2016-08-11T01:27:44.154Z,8.7
2016-08-11T01:27:54.915Z,8.7
2016-08-11T01:28:04.167Z,8.7
2016-08-11T01:28:14.174Z,8.7
2016-08-11T01:28:34.186Z,8.7
2016-08-11T01:28:44.190Z,8.7
2016-08-11T01:28:54.196Z,8.7
2016-08-11T01:29:04.203Z,8.7
2016-08-11T01:29:14.962Z,8.7
2016-08-11T01:29:24.216Z,8.7
2016-08-11T01:29:34.225Z,8.7
2016-08-11T01:29:44.228Z,8.7
2016-08-11T01:29:54.235Z,8.7
2016-08-11T01:30:04.240Z,8.7
2016-08-11T01:30:14.245Z,8.7
2016-08-11T01:30:24.253Z,8.7
2016-08-11T01:30:34.258Z,8.7
2016-08-11T01:30:44.263Z,8.7
2016-08-11T01:30:54.270Z,8.7
2016-08-11T01:31:05.036Z,8.8
2016-08-11T01:31:14.280Z,8.7
2016-08-11T01:31:24.286Z,8.8
2016-08-11T01:31:34.294Z,8.7
2016-08-11T01:31:44.298Z,8.7
2016-08-11T01:31:54.304Z,8.7
2016-08-11T01:32:05.063Z,8.7
2016-08-11T01:32:14.315Z,8.7
2016-08-11T01:32:24.330Z,8.8
2016-08-11T01:32:34.327Z,8.7
2016-08-11T01:32:44.333Z,8.7
2016-08-11T01:32:54.340Z,8.7
2016-08-11T01:33:04.347Z,8.8
2016-08-11T01:33:14.354Z,8.7
2016-08-11T01:33:24.360Z,8.8
2016-08-11T01:33:34.364Z,8.7
2016-08-11T01:33:44.369Z,8.7
2016-08-11T01:33:54.374Z,8.8
2016-08-11T01:34:04.382Z,8.7
2016-08-11T01:34:14.386Z,8.8
2016-08-11T01:34:24.391Z,8.6
2016-08-11T01:34:34.399Z,8.7
2016-08-11T01:34:44.405Z,8.8
2016-08-11T01:34:54.411Z,8.7
2016-08-11T01:35:04.417Z,8.8
2016-08-11T01:35:14.422Z,8.8
2016-08-11T01:35:24.428Z,8.8
2016-08-11T01:35:34.460Z,8.8
2016-08-11T01:35:45.194Z,8.7
2016-08-11T01:35:54.450Z,8.7
2016-08-11T01:36:05.205Z,8.8
2016-08-11T01:36:15.214Z,8.7
2016-08-11T01:36:24.466Z,8.8
2016-08-11T01:36:35.224Z,8.8
2016-08-11T01:36:44.476Z,8.8
2016-08-11T01:36:54.483Z,8.7
2016-08-11T01:37:04.488Z,8.7
2016-08-11T01:37:14.494Z,8.7
2016-08-11T01:37:24.500Z,8.7
2016-08-11T01:37:34.505Z,8.7
2016-08-11T01:37:44.512Z,8.8
2016-08-11T01:37:54.518Z,8.7
2016-08-11T01:38:04.524Z,8.7
2016-08-11T01:38:15.283Z,8.7
2016-08-11T01:38:24.535Z,8.7
2016-08-11T01:38:34.554Z,8.7
2016-08-11T01:38:44.548Z,8.7
2016-08-11T01:38:54.554Z,8.7
2016-08-11T01:39:04.562Z,8.7
2016-08-11T01:39:14.566Z,8.7
2016-08-11T01:39:25.325Z,8.6
2016-08-11T01:39:34.577Z,8.6
2016-08-11T01:39:45.337Z,8.7
2016-08-11T01:39:54.589Z,8.7
2016-08-11T01:40:04.595Z,8.6
2016-08-11T01:40:14.601Z,8.7
2016-08-11T01:40:24.607Z,8.7
2016-08-11T01:40:34.614Z,8.7
2016-08-11T01:40:44.618Z,8.6
2016-08-11T01:40:54.625Z,8.6
2016-08-11T01:41:04.631Z,8.6
2016-08-11T01:41:14.637Z,8.7
2016-08-11T01:41:25.396Z,8.7
2016-08-11T01:41:34.648Z,8.7
2016-08-11T01:41:45.407Z,8.7
2016-08-11T01:41:54.661Z,8.7
2016-08-11T01:42:04.667Z,8.7
2016-08-11T01:42:14.671Z,8.6
2016-08-11T01:42:24.678Z,8.7
2016-08-11T01:42:34.684Z,8.6
2016-08-11T01:42:44.689Z,8.7
2016-08-11T01:42:54.703Z,8.7
2016-08-11T01:43:05.454Z,8.6
2016-08-11T01:43:14.706Z,8.6
2016-08-11T01:43:34.718Z,8.6
2016-08-11T01:43:44.726Z,8.6
2016-08-11T01:43:54.731Z,8.6
2016-08-11T01:44:05.490Z,8.6
2016-08-11T01:44:14.744Z,8.6
2016-08-11T01:44:24.749Z,8.6
2016-08-11T01:44:34.756Z,8.6
2016-08-11T01:44:44.762Z,8.6
2016-08-11T01:44:55.520Z,8.6
2016-08-11T01:45:04.774Z,8.6
2016-08-11T01:45:14.788Z,8.6
2016-08-11T01:45:24.784Z,8.6
2016-08-11T01:45:34.798Z,8.6
2016-08-11T01:45:44.797Z,8.6
2016-08-11T01:45:54.804Z,8.6
2016-08-11T01:46:04.810Z,8.6
2016-08-11T01:46:15.569Z,8.7
2016-08-11T01:46:24.821Z,8.6
2016-08-11T01:46:34.827Z,8.6
2016-08-11T01:46:44.834Z,8.7
2016-08-11T01:46:54.841Z,8.6
2016-08-11T01:47:04.843Z,8.7
2016-08-11T01:47:14.850Z,8.6
2016-08-11T01:47:24.856Z,8.6
2016-08-11T01:47:34.861Z,8.7
2016-08-11T01:47:44.878Z,8.7
2016-08-11T01:47:54.875Z,8.7
2016-08-11T01:48:04.880Z,8.6
2016-08-11T01:48:15.653Z,8.6
2016-08-11T01:48:24.892Z,8.6
2016-08-11T01:48:34.897Z,8.6
2016-08-11T01:48:44.905Z,8.6
2016-08-11T01:48:54.910Z,8.6
2016-08-11T01:49:04.920Z,8.6
2016-08-11T01:49:14.922Z,8.6
2016-08-11T01:49:24.928Z,8.6
2016-08-11T01:49:34.933Z,8.6
2016-08-11T01:49:44.939Z,8.6
2016-08-11T01:49:54.946Z,8.5
2016-08-11T01:50:04.951Z,8.6
2016-08-11T01:50:14.959Z,8.6
2016-08-11T01:50:25.717Z,8.5
2016-08-11T01:50:35.723Z,8.6
2016-08-11T01:50:44.976Z,8.6
2016-08-11T01:50:54.980Z,8.6
2016-08-11T01:51:04.988Z,8.7
2016-08-11T01:51:14.993Z,8.7
2016-08-11T01:51:25.751Z,8.6
2016-08-11T01:51:35.004Z,8.7
2016-08-11T01:51:45.012Z,8.7
2016-08-11T01:51:55.017Z,8.7
2016-08-11T01:52:05.775Z,8.7
2016-08-11T01:52:15.029Z,8.6
2016-08-11T01:52:25.036Z,8.7
2016-08-11T01:52:35.792Z,8.7
2016-08-11T01:52:45.046Z,8.7
2016-08-11T01:52:55.052Z,8.7
2016-08-11T01:53:05.057Z,8.7
2016-08-11T01:53:15.063Z,8.7
2016-08-11T01:53:25.070Z,8.7
2016-08-11T01:53:35.830Z,8.7
2016-08-11T01:53:45.081Z,8.7
2016-08-11T01:53:55.087Z,8.6
2016-08-11T01:54:05.092Z,8.7
2016-08-11T01:54:15.099Z,8.7
2016-08-11T01:54:25.859Z,8.7
2016-08-11T01:54:35.111Z,8.6
2016-08-11T01:54:45.117Z,8.7
2016-08-11T01:54:55.124Z,8.6
2016-08-11T01:55:05.127Z,8.6
2016-08-11T01:55:15.887Z,8.7
2016-08-11T01:55:25.139Z,8.7
2016-08-11T01:55:35.148Z,8.7
2016-08-11T01:55:45.906Z,8.6
2016-08-11T01:55:55.159Z,8.7
2016-08-11T01:56:05.164Z,8.6
2016-08-11T01:56:15.169Z,8.6
2016-08-11T01:56:25.175Z,8.6
2016-08-11T01:56:35.182Z,8.6
2016-08-11T01:56:45.188Z,8.6
2016-08-11T01:56:55.194Z,8.6
2016-08-11T01:57:05.205Z,8.6
2016-08-11T01:57:15.959Z,8.7
2016-08-11T01:57:25.211Z,8.6
2016-08-11T01:57:35.221Z,8.6
2016-08-11T01:57:45.223Z,8.6
2016-08-11T01:57:55.227Z,8.7
2016-08-11T01:58:05.237Z,8.7
2016-08-11T01:58:15.243Z,8.7
2016-08-11T01:58:26.002Z,8.6
2016-08-11T01:58:45.260Z,8.6
2016-08-11T01:58:55.264Z,8.6
2016-08-11T01:59:05.271Z,8.7
2016-08-11T01:59:15.277Z,8.5
2016-08-11T01:59:25.283Z,8.6
2016-08-11T01:59:35.289Z,8.7
2016-08-11T01:59:45.295Z,8.6
2016-08-11T01:59:56.054Z,8.6
2016-08-11T02:00:05.309Z,8.6
2016-08-11T02:00:15.313Z,8.7
2016-08-11T02:00:25.316Z,8.6
2016-08-11T02:00:35.330Z,8.5
2016-08-11T02:00:45.328Z,8.6
2016-08-11T02:00:55.343Z,8.6
2016-08-11T02:01:05.343Z,8.5
2016-08-11T02:01:15.347Z,8.6
2016-08-11T02:01:26.106Z,8.6
2016-08-11T02:01:35.359Z,8.5
2016-08-11T02:01:45.365Z,8.5
2016-08-11T02:01:56.124Z,8.5
2016-08-11T02:02:05.377Z,8.5
2016-08-11T02:02:15.384Z,8.6
2016-08-11T02:02:25.390Z,8.6
2016-08-11T02:02:35.397Z,8.5
2016-08-11T02:02:45.407Z,8.6
2016-08-11T02:02:55.413Z,8.6
2016-08-11T02:03:05.411Z,8.6
2016-08-11T02:03:15.418Z,8.6
2016-08-11T02:03:25.426Z,8.5
2016-08-11T02:03:35.430Z,8.5
2016-08-11T02:03:45.437Z,8.5
2016-08-11T02:03:55.446Z,8.5
2016-08-11T02:04:06.200Z,8.6
2016-08-11T02:04:15.454Z,8.5
2016-08-11T02:04:25.458Z,8.5
2016-08-11T02:04:35.465Z,8.4
2016-08-11T02:04:45.474Z,8.5
2016-08-11T02:04:56.230Z,8.5
2016-08-11T02:05:05.489Z,8.5
2016-08-11T02:05:16.243Z,8.6
2016-08-11T02:05:25.497Z,8.5
2016-08-11T02:05:35.499Z,8.6
2016-08-11T02:05:45.507Z,8.5
2016-08-11T02:05:55.514Z,8.6
2016-08-11T02:06:06.273Z,8.5
2016-08-11T02:06:15.526Z,8.6
2016-08-11T02:06:25.536Z,8.5
2016-08-11T02:06:35.538Z,8.6
2016-08-11T02:06:46.295Z,8.5
2016-08-11T02:06:55.548Z,8.5
2016-08-11T02:07:05.555Z,8.5
2016-08-11T02:07:15.562Z,8.5
2016-08-11T02:07:25.567Z,8.5
2016-08-11T02:07:36.325Z,8.5
2016-08-11T02:07:45.577Z,8.4
2016-08-11T02:07:55.585Z,8.5
2016-08-11T02:08:05.591Z,8.4
2016-08-11T02:08:15.598Z,8.4
2016-08-11T02:08:25.604Z,8.5
2016-08-11T02:08:35.609Z,8.5
2016-08-11T02:08:45.615Z,8.4
2016-08-11T02:08:55.620Z,8.5
2016-08-11T02:09:05.627Z,8.4
2016-08-11T02:09:15.632Z,8.4
2016-08-11T02:09:25.639Z,8.5
2016-08-11T02:09:35.645Z,8.5
2016-08-11T02:09:45.651Z,8.4
2016-08-11T02:09:55.665Z,8.4
2016-08-11T02:10:05.661Z,8.5
2016-08-11T02:10:15.668Z,8.5
2016-08-11T02:10:25.671Z,8.4
2016-08-11T02:10:35.688Z,8.5
2016-08-11T02:10:45.684Z,8.4
2016-08-11T02:10:55.690Z,8.4
2016-08-11T02:11:05.700Z,8.5
2016-08-11T02:11:15.704Z,8.5
2016-08-11T02:11:25.710Z,8.4
2016-08-11T02:11:35.715Z,8.4
2016-08-11T02:11:46.473Z,8.5
2016-08-11T02:11:55.726Z,8.4
2016-08-11T02:12:05.731Z,8.4
2016-08-11T02:12:15.739Z,8.5
2016-08-11T02:12:25.743Z,8.5
2016-08-11T02:12:35.748Z,8.5
2016-08-11T02:12:45.756Z,8.6
2016-08-11T02:12:56.513Z,8.5
2016-08-11T02:13:05.767Z,8.5
2016-08-11T02:13:16.525Z,8.5
2016-08-11T02:13:25.777Z,8.5
2016-08-11T02:13:45.790Z,8.6
2016-08-11T02:13:55.798Z,8.6
2016-08-11T02:14:05.803Z,8.5
2016-08-11T02:14:15.808Z,8.6
2016-08-11T02:14:25.812Z,8.6
2016-08-11T02:14:35.820Z,8.5
2016-08-11T02:14:45.827Z,8.5
2016-08-11T02:14:56.585Z,8.6
2016-08-11T02:15:06.591Z,8.5
2016-08-11T02:15:15.842Z,8.5
2016-08-11T02:15:25.852Z,8.5
2016-08-11T02:15:35.856Z,8.5
2016-08-11T02:15:45.861Z,8.5
2016-08-11T02:15:55.867Z,8.5
2016-08-11T02:16:05.872Z,8.5
2016-08-11T02:16:15.879Z,8.5
2016-08-11T02:16:25.887Z,8.5
2016-08-11T02:16:35.893Z,8.5
2016-08-11T02:16:45.897Z,8.5
2016-08-11T02:16:55.903Z,8.5
2016-08-11T02:17:05.907Z,8.6
2016-08-11T02:17:15.916Z,8.6
2016-08-11T02:17:25.920Z,8.6
2016-08-11T02:17:35.927Z,8.5
2016-08-11T02:17:46.686Z,8.5
2016-08-11T02:17:56.692Z,8.6
2016-08-11T02:18:05.946Z,8.6
2016-08-11T02:18:15.951Z,8.6
2016-08-11T02:18:25.954Z,8.6
2016-08-11T02:18:35.968Z,8.6
2016-08-11T02:18:45.968Z,8.6
2016-08-11T02:18:55.974Z,8.5
2016-08-11T02:19:05.979Z,8.6
2016-08-11T02:19:15.990Z,8.6
2016-08-11T02:19:26.745Z,8.6
2016-08-11T02:19:35.996Z,8.6
2016-08-11T02:19:46.004Z,8.5
2016-08-11T02:19:56.011Z,8.6
2016-08-11T02:20:06.014Z,8.6